Time;durP1;ratioP1;P1;durP2;ratioP2;P2;SDS_P1;SDS_P2;PMS_P1;PMS_P2;Temp;Humidity;BMP_temperature;BMP_pressure;BME280_temperature;BME280_humidity;BME280_pressure;Samples;Min_cycle;Max_cycle;Signal;HPM_P1;HPM_P2
2021/11/18 00:00:46;;;;;;;0.40;0.30;;;5.60;99.90;;;;;;5092652;28;20759;-71
2021/11/18 00:03:12;;;;;;;0.40;0.30;;;5.60;99.90;;;;;;5092979;28;20469;-71
2021/11/18 00:05:38;;;;;;;0.40;0.30;;;5.70;99.90;;;;;;5092292;28;20447;-71
2021/11/18 00:08:05;;;;;;;0.40;0.40;;;5.80;99.90;;;;;;5093161;28;20461;-71
2021/11/18 00:10:43;;;;;;;0.40;0.30;;;5.80;99.90;;;;;;5092435;28;20378;-71
2021/11/18 00:13:12;;;;;;;0.40;0.20;;;5.70;99.90;;;;;;5093201;28;20371;-71
2021/11/18 00:15:38;;;;;;;0.50;0.50;;;5.80;99.90;;;;;;5092759;28;20420;-72
2021/11/18 00:18:09;;;;;;;0.40;0.30;;;5.90;99.90;;;;;;5092807;28;20378;-71
2021/11/18 00:20:46;;;;;;;0.40;0.30;;;5.90;99.90;;;;;;5092433;28;20732;-72
2021/11/18 00:23:12;;;;;;;0.50;0.50;;;5.80;99.90;;;;;;5093035;28;20420;-72
2021/11/18 00:25:38;;;;;;;0.70;0.60;;;5.70;99.90;;;;;;5092147;28;20425;-72
2021/11/18 00:28:04;;;;;;;0.90;0.80;;;5.80;99.90;;;;;;5092822;28;20491;-71
2021/11/18 00:30:30;;;;;;;0.40;0.30;;;5.70;99.90;;;;;;5092169;28;20390;-71
2021/11/18 00:32:56;;;;;;;0.40;0.20;;;5.70;99.90;;;;;;5092750;28;20435;-72
2021/11/18 00:35:25;;;;;;;0.40;0.20;;;5.80;99.90;;;;;;5092703;28;20531;-71
2021/11/18 00:37:51;;;;;;;0.40;0.20;;;5.70;99.90;;;;;;5092080;28;20388;-71
2021/11/18 00:40:22;;;;;;;0.40;0.20;;;5.70;99.90;;;;;;5092544;28;20420;-71
2021/11/18 00:42:48;;;;;;;0.40;0.30;;;5.70;99.90;;;;;;5092017;28;20385;-71
2021/11/18 00:45:16;;;;;;;0.40;0.30;;;5.70;99.90;;;;;;5092254;28;20370;-71
2021/11/18 00:47:41;;;;;;;0.40;0.22;;;5.70;99.90;;;;;;5091836;28;20397;-71
2021/11/18 00:50:09;;;;;;;0.40;0.30;;;5.70;99.90;;;;;;5092400;28;20781;-71
2021/11/18 00:52:35;;;;;;;0.40;0.30;;;5.70;99.90;;;;;;5091780;28;20421;-72
2021/11/18 00:55:04;;;;;;;0.40;0.20;;;5.80;99.90;;;;;;5092390;28;20378;-71
2021/11/18 00:57:30;;;;;;;0.40;0.30;;;5.70;99.90;;;;;;5091780;28;20473;-70
2021/11/18 00:59:56;;;;;;;0.40;0.20;;;5.70;99.90;;;;;;5091306;28;20549;-72
2021/11/18 01:02:21;;;;;;;0.40;0.20;;;5.70;99.90;;;;;;5091832;28;20901;-72
2021/11/18 01:04:47;;;;;;;0.40;0.30;;;5.80;99.90;;;;;;5091624;28;20461;-72
2021/11/18 01:07:13;;;;;;;0.50;0.50;;;5.90;99.90;;;;;;5091736;28;20799;-72
2021/11/18 01:09:39;;;;;;;0.40;0.20;;;5.80;99.90;;;;;;5091134;28;20435;-72
2021/11/18 01:12:06;;;;;;;0.40;0.30;;;5.70;99.90;;;;;;5091656;28;20427;-72
2021/11/18 01:14:33;;;;;;;0.40;0.20;;;5.70;99.90;;;;;;5091131;28;20374;-72
2021/11/18 01:16:59;;;;;;;0.40;0.20;;;5.70;99.90;;;;;;5091785;28;20378;-72
2021/11/18 01:19:25;;;;;;;0.40;0.20;;;5.90;99.90;;;;;;5091851;28;20700;-72
2021/11/18 01:21:53;;;;;;;0.40;0.30;;;5.90;99.90;;;;;;5091256;28;20393;-72
2021/11/18 01:24:19;;;;;;;0.40;0.28;;;5.90;99.90;;;;;;5091708;28;20473;-73
2021/11/18 01:26:45;;;;;;;0.40;0.20;;;5.90;99.90;;;;;;5090745;28;20390;-73
2021/11/18 01:29:11;;;;;;;0.40;0.30;;;5.80;99.90;;;;;;5091782;28;20428;-71
2021/11/18 01:31:37;;;;;;;0.70;0.60;;;5.80;99.90;;;;;;5090827;28;20720;-71
2021/11/18 01:34:03;;;;;;;0.40;0.20;;;5.80;99.90;;;;;;5091644;28;20382;-71
2021/11/18 01:36:29;;;;;;;0.40;0.20;;;5.90;99.90;;;;;;5091329;28;20456;-71
2021/11/18 01:38:55;;;;;;;0.40;0.20;;;5.80;99.90;;;;;;5091404;28;20385;-71
2021/11/18 01:41:25;;;;;;;0.40;0.30;;;5.80;99.90;;;;;;5091297;28;20405;-71
2021/11/18 01:43:55;;;;;;;0.40;0.20;;;5.90;99.90;;;;;;5090855;28;20382;-71
2021/11/18 01:46:27;;;;;;;0.40;0.20;;;5.90;99.90;;;;;;5091259;28;20457;-71
2021/11/18 01:48:54;;;;;;;0.40;0.30;;;5.90;99.90;;;;;;5090604;28;20473;-71
2021/11/18 01:51:25;;;;;;;0.40;0.20;;;5.90;99.90;;;;;;5091118;28;20743;-71
2021/11/18 01:53:51;;;;;;;0.40;0.20;;;5.90;99.90;;;;;;5090774;28;20661;-71
2021/11/18 01:56:28;;;;;;;0.40;0.30;;;6.00;99.90;;;;;;5090826;28;20447;-71
2021/11/18 01:58:57;;;;;;;0.40;0.20;;;5.80;99.90;;;;;;5090420;28;20380;-71
2021/11/18 02:01:24;;;;;;;0.40;0.20;;;5.90;99.90;;;;;;5090946;28;20453;-71
2021/11/18 02:03:50;;;;;;;0.40;0.20;;;5.90;99.90;;;;;;5090193;28;20917;-71
2021/11/18 02:06:24;;;;;;;0.40;0.32;;;5.90;99.90;;;;;;5091157;28;20406;-71
2021/11/18 02:08:50;;;;;;;0.40;0.20;;;5.90;99.90;;;;;;5090557;28;20378;-71
2021/11/18 02:11:26;;;;;;;0.45;0.38;;;6.00;99.90;;;;;;5091053;28;20382;-71
2021/11/18 02:13:54;;;;;;;0.45;0.43;;;6.00;99.90;;;;;;5090370;28;20708;-71
2021/11/18 02:16:20;;;;;;;0.40;0.30;;;6.10;99.90;;;;;;5090969;28;20719;-71
2021/11/18 02:18:46;;;;;;;0.40;0.20;;;6.10;99.90;;;;;;5090198;28;20457;-71
2021/11/18 02:21:13;;;;;;;0.40;0.30;;;6.20;99.90;;;;;;5090905;28;20409;-71
2021/11/18 02:24:00;;;;;;;0.70;0.70;;;6.10;99.90;;;;;;5090251;28;20393;-71
2021/11/18 02:26:27;;;;;;;0.40;0.20;;;6.20;99.90;;;;;;5090736;28;20394;-71
2021/11/18 02:28:55;;;;;;;0.40;0.30;;;6.20;99.90;;;;;;5090225;28;20378;-71
2021/11/18 02:31:29;;;;;;;0.40;0.30;;;6.20;99.90;;;;;;5090805;28;20467;-71
2021/11/18 02:33:55;;;;;;;0.50;0.40;;;6.10;99.90;;;;;;5090121;28;20527;-71
2021/11/18 02:36:21;;;;;;;0.40;0.30;;;6.10;99.90;;;;;;5090460;28;20413;-71
2021/11/18 02:38:47;;;;;;;0.60;0.60;;;6.10;99.90;;;;;;5090125;28;20366;-71
2021/11/18 02:41:15;;;;;;;0.40;0.20;;;6.10;99.90;;;;;;5090569;28;20445;-71
2021/11/18 02:43:42;;;;;;;0.40;0.30;;;6.20;99.90;;;;;;5089968;28;20386;-71
2021/11/18 02:46:09;;;;;;;0.40;0.30;;;6.00;99.90;;;;;;5090548;28;20398;-71
2021/11/18 02:48:36;;;;;;;0.70;0.60;;;5.90;99.90;;;;;;5089807;28;20730;-71
2021/11/18 02:51:05;;;;;;;0.40;0.30;;;6.00;99.90;;;;;;5090176;28;20496;-71
2021/11/18 02:53:32;;;;;;;0.40;0.30;;;6.00;99.90;;;;;;5090789;28;20393;-70
2021/11/18 02:55:59;;;;;;;0.70;0.60;;;6.00;99.90;;;;;;5089764;28;20390;-73
2021/11/18 02:58:26;;;;;;;0.40;0.20;;;6.00;99.90;;;;;;5090217;28;20494;-70
2021/11/18 03:01:00;;;;;;;0.40;0.20;;;6.00;99.90;;;;;;5089603;28;20414;-70
2021/11/18 03:03:26;;;;;;;0.40;0.30;;;6.10;99.90;;;;;;5089562;28;20808;-71
2021/11/18 03:05:54;;;;;;;0.40;0.30;;;6.10;99.90;;;;;;5089802;28;20461;-71
2021/11/18 03:08:22;;;;;;;0.40;0.30;;;6.10;99.90;;;;;;5089992;28;20374;-72
2021/11/18 03:10:48;;;;;;;0.40;0.30;;;6.10;99.90;;;;;;5089807;28;20377;-71
2021/11/18 03:13:15;;;;;;;0.40;0.30;;;6.00;99.90;;;;;;5090290;28;20480;-71
2021/11/18 03:15:41;;;;;;;0.40;0.20;;;6.00;99.90;;;;;;5089759;28;20465;-72
2021/11/18 03:18:07;;;;;;;0.40;0.30;;;6.00;99.90;;;;;;5089906;28;20473;-71
2021/11/18 03:20:33;;;;;;;0.40;0.20;;;6.00;99.90;;;;;;5090259;28;20443;-72
2021/11/18 03:22:58;;;;;;;0.40;0.30;;;6.10;99.90;;;;;;5090808;28;20374;-72
2021/11/18 03:25:28;;;;;;;0.40;0.30;;;6.10;99.90;;;;;;5093798;28;20378;-72
2021/11/18 03:27:54;;;;;;;0.40;0.20;;;6.10;99.90;;;;;;5093306;28;20395;-71
2021/11/18 03:30:24;;;;;;;0.40;0.40;;;6.10;99.90;;;;;;5094184;28;20862;-70
2021/11/18 03:32:53;;;;;;;0.40;0.30;;;6.10;99.90;;;;;;5093338;28;20419;-71
2021/11/18 03:35:19;;;;;;;0.40;0.20;;;6.10;99.90;;;;;;5093713;28;20487;-71
2021/11/18 03:37:45;;;;;;;0.40;0.20;;;5.90;99.90;;;;;;5092966;28;20898;-71
2021/11/18 03:40:12;;;;;;;0.40;0.40;;;6.00;99.90;;;;;;5093846;28;20523;-71
2021/11/18 03:42:38;;;;;;;0.40;0.30;;;6.00;99.90;;;;;;5093469;28;20385;-71
2021/11/18 03:45:06;;;;;;;0.40;0.30;;;6.10;99.90;;;;;;5093830;28;20383;-71
2021/11/18 03:47:32;;;;;;;0.60;0.60;;;6.10;99.90;;;;;;5093293;28;20386;-71
2021/11/18 03:49:57;;;;;;;0.60;0.60;;;6.10;99.90;;;;;;5092884;28;20393;-71
2021/11/18 03:52:23;;;;;;;0.40;0.20;;;6.00;99.90;;;;;;5093735;28;20410;-71
2021/11/18 03:54:49;;;;;;;0.40;0.30;;;6.00;99.90;;;;;;5093050;28;20435;-71
2021/11/18 03:57:15;;;;;;;0.40;0.30;;;6.10;99.90;;;;;;5093032;28;20402;-71
2021/11/18 03:59:43;;;;;;;0.40;0.20;;;6.20;99.90;;;;;;5092535;28;20890;-71
2021/11/18 04:02:10;;;;;;;0.40;0.20;;;6.20;99.90;;;;;;5093659;28;20382;-71
2021/11/18 04:04:39;;;;;;;0.40;0.20;;;6.30;99.90;;;;;;5093360;28;20449;-71
2021/11/18 04:07:05;;;;;;;0.40;0.30;;;6.30;99.90;;;;;;5093303;28;20393;-71
2021/11/18 04:09:32;;;;;;;0.40;0.30;;;6.30;99.90;;;;;;5093218;28;20374;-71
2021/11/18 04:12:01;;;;;;;0.40;0.30;;;6.30;99.90;;;;;;5092680;28;20492;-71
2021/11/18 04:14:30;;;;;;;0.40;0.20;;;6.30;99.90;;;;;;5093236;28;20672;-71
2021/11/18 04:16:56;;;;;;;0.40;0.20;;;6.20;99.90;;;;;;5092552;28;20733;-71
2021/11/18 04:19:22;;;;;;;0.40;0.30;;;6.30;99.90;;;;;;5093335;28;20370;-71
2021/11/18 04:21:50;;;;;;;0.40;0.30;;;6.40;99.90;;;;;;5091225;28;20555;-71
2021/11/18 04:24:19;;;;;;;0.60;0.60;;;6.30;99.90;;;;;;5092941;28;20431;-71
2021/11/18 04:26:46;;;;;;;0.40;0.20;;;6.30;99.90;;;;;;5092829;28;20386;-71
2021/11/18 04:29:12;;;;;;;0.40;0.38;;;6.40;99.90;;;;;;5092760;28;20390;-71
2021/11/18 04:31:39;;;;;;;0.40;0.20;;;6.40;99.90;;;;;;5092892;28;20916;-71
2021/11/18 04:34:06;;;;;;;0.40;0.20;;;6.50;99.90;;;;;;5091857;28;20381;-71
2021/11/18 04:36:34;;;;;;;0.60;0.60;;;6.40;99.90;;;;;;5092793;28;20385;-71
2021/11/18 04:39:01;;;;;;;0.70;0.60;;;6.40;99.90;;;;;;5092145;28;20773;-71
2021/11/18 04:41:28;;;;;;;0.40;0.20;;;6.50;99.90;;;;;;5092798;28;20401;-71
2021/11/18 04:43:54;;;;;;;0.40;0.20;;;6.50;99.90;;;;;;5092016;28;20413;-71
2021/11/18 04:46:21;;;;;;;0.40;0.20;;;6.50;99.90;;;;;;5092339;28;20780;-71
2021/11/18 04:48:47;;;;;;;0.40;0.20;;;6.60;99.90;;;;;;5091754;28;20468;-71
2021/11/18 04:51:16;;;;;;;0.40;0.20;;;6.50;99.90;;;;;;5092543;28;20406;-71
2021/11/18 04:53:42;;;;;;;0.40;0.20;;;6.50;99.90;;;;;;5091669;28;20418;-72
2021/11/18 04:56:09;;;;;;;0.40;0.20;;;6.40;99.90;;;;;;5092210;28;20485;-71
2021/11/18 04:58:35;;;;;;;0.40;0.20;;;6.50;99.90;;;;;;5091938;28;20878;-72
2021/11/18 05:01:01;;;;;;;0.40;0.20;;;6.50;99.90;;;;;;5091777;28;20402;-72
2021/11/18 05:03:28;;;;;;;0.40;0.20;;;6.40;99.90;;;;;;5092546;28;20378;-72
2021/11/18 05:05:55;;;;;;;0.70;0.70;;;6.40;99.90;;;;;;5091989;28;20810;-72
2021/11/18 05:08:21;;;;;;;0.40;0.20;;;6.40;99.90;;;;;;5092513;28;20461;-72
2021/11/18 05:10:49;;;;;;;0.60;0.60;;;6.30;99.90;;;;;;5091922;28;20463;-72
2021/11/18 05:13:17;;;;;;;0.40;0.30;;;6.40;99.90;;;;;;5092424;28;20382;-72
2021/11/18 05:15:45;;;;;;;0.90;0.90;;;6.40;99.90;;;;;;5092445;28;20389;-72
2021/11/18 05:18:11;;;;;;;0.40;0.20;;;6.50;99.90;;;;;;5092052;28;20778;-71
2021/11/18 05:20:38;;;;;;;0.40;0.20;;;6.50;99.90;;;;;;5092023;28;20489;-71
2021/11/18 05:23:05;;;;;;;0.85;0.43;;;6.40;99.90;;;;;;5091721;28;21327;-71
2021/11/18 05:25:32;;;;;;;0.43;0.35;;;6.20;99.90;;;;;;5092078;28;20381;-71
2021/11/18 05:27:59;;;;;;;0.40;0.20;;;6.30;99.90;;;;;;5091699;28;20867;-71
2021/11/18 05:30:27;;;;;;;0.40;0.20;;;6.20;99.90;;;;;;5092068;28;20386;-71
2021/11/18 05:32:57;;;;;;;0.40;0.30;;;6.20;99.90;;;;;;5091461;28;20385;-71
2021/11/18 05:35:25;;;;;;;0.40;0.30;;;6.30;99.90;;;;;;5092110;28;20400;-71
2021/11/18 05:37:51;;;;;;;0.60;0.50;;;6.30;99.90;;;;;;5091328;28;20768;-71
2021/11/18 05:40:18;;;;;;;0.40;0.20;;;6.30;99.90;;;;;;5091817;28;20496;-71
2021/11/18 05:42:44;;;;;;;0.40;0.30;;;6.20;99.90;;;;;;5091731;28;20378;-70
2021/11/18 05:45:17;;;;;;;0.40;0.20;;;6.20;99.90;;;;;;5091284;28;20389;-71
2021/11/18 05:47:44;;;;;;;1.50;0.90;;;6.20;99.90;;;;;;5091903;28;20370;-71
2021/11/18 05:50:12;;;;;;;0.40;0.30;;;6.20;99.90;;;;;;5091087;28;20378;-71
2021/11/18 05:52:39;;;;;;;0.40;0.20;;;6.20;99.90;;;;;;5091714;28;20405;-71
2021/11/18 05:55:06;;;;;;;0.40;0.30;;;6.20;99.90;;;;;;5090947;28;20386;-71
2021/11/18 05:57:31;;;;;;;0.40;0.30;;;6.10;99.90;;;;;;5092156;28;20477;-71
2021/11/18 05:59:57;;;;;;;0.40;0.20;;;6.10;99.90;;;;;;5090583;28;20500;-71
2021/11/18 06:02:23;;;;;;;0.40;0.20;;;6.10;99.90;;;;;;5091243;28;20870;-71
2021/11/18 06:04:48;;;;;;;0.40;0.20;;;6.10;99.90;;;;;;5089632;28;20378;-71
2021/11/18 06:07:14;;;;;;;0.40;0.30;;;6.10;99.90;;;;;;5090219;28;20461;-71
2021/11/18 06:09:40;;;;;;;0.40;0.30;;;6.20;99.90;;;;;;5091385;28;20447;-71
2021/11/18 06:12:07;;;;;;;0.40;0.20;;;6.20;99.90;;;;;;5090792;28;20370;-70
2021/11/18 06:14:33;;;;;;;0.40;0.20;;;6.20;99.90;;;;;;5090988;28;20862;-70
2021/11/18 06:16:58;;;;;;;0.40;0.40;;;6.20;99.90;;;;;;5090441;28;20428;-71
2021/11/18 06:19:24;;;;;;;0.40;0.20;;;6.10;99.90;;;;;;5091300;28;20410;-70
2021/11/18 06:21:55;;;;;;;0.40;0.20;;;6.20;99.90;;;;;;5090591;28;20492;-70
2021/11/18 06:24:26;;;;;;;0.60;0.60;;;6.20;99.90;;;;;;5091330;28;20548;-72
2021/11/18 06:26:55;;;;;;;0.40;0.20;;;6.20;99.90;;;;;;5090574;28;20712;-71
2021/11/18 06:29:22;;;;;;;0.40;0.30;;;6.30;99.90;;;;;;5091154;28;20431;-72
2021/11/18 06:31:56;;;;;;;0.40;0.20;;;6.20;99.90;;;;;;5089368;28;20377;-71
2021/11/18 06:34:22;;;;;;;0.40;0.30;;;6.30;99.90;;;;;;5090811;28;20374;-71
2021/11/18 06:36:48;;;;;;;0.40;0.40;;;6.40;99.90;;;;;;5090733;28;20405;-71
2021/11/18 06:39:14;;;;;;;0.40;0.30;;;6.30;99.90;;;;;;5090867;28;20473;-72
2021/11/18 06:41:41;;;;;;;1.30;1.00;;;6.30;99.90;;;;;;5089534;28;20435;-70
2021/11/18 06:44:08;;;;;;;0.40;0.30;;;6.40;99.90;;;;;;5090352;28;20378;-70
2021/11/18 06:46:43;;;;;;;0.40;0.30;;;6.60;99.90;;;;;;5090874;28;20443;-70
2021/11/18 06:49:10;;;;;;;0.40;0.20;;;6.50;99.90;;;;;;5090412;28;21168;-70
2021/11/18 06:51:38;;;;;;;0.50;0.50;;;6.50;99.90;;;;;;5090982;28;20406;-71
2021/11/18 06:54:04;;;;;;;0.40;0.20;;;6.60;99.90;;;;;;5090331;28;20467;-71
2021/11/18 06:56:30;;;;;;;0.40;0.30;;;6.60;99.90;;;;;;5090902;28;20469;-71
2021/11/18 06:58:55;;;;;;;0.40;0.20;;;6.50;99.90;;;;;;5093233;28;20378;-72
2021/11/18 07:01:21;;;;;;;0.40;0.20;;;6.60;99.90;;;;;;5094773;28;20478;-71
2021/11/18 07:03:47;;;;;;;0.60;0.60;;;6.60;99.90;;;;;;5094938;28;20727;-71
2021/11/18 07:06:16;;;;;;;0.40;0.20;;;6.70;99.90;;;;;;5094525;28;20382;-71
2021/11/18 07:08:43;;;;;;;0.40;0.30;;;6.70;99.90;;;;;;5094909;28;20452;-71
2021/11/18 07:11:10;;;;;;;0.40;0.20;;;6.80;99.90;;;;;;5094098;28;20469;-71
2021/11/18 07:13:37;;;;;;;0.40;0.30;;;6.90;99.90;;;;;;5094886;28;20370;-72
2021/11/18 07:16:05;;;;;;;0.40;0.30;;;6.90;99.90;;;;;;5093709;28;20893;-72
2021/11/18 07:18:31;;;;;;;0.40;0.30;;;7.00;99.90;;;;;;5094706;28;20461;-71
2021/11/18 07:21:01;;;;;;;0.40;0.40;;;6.90;99.90;;;;;;5094008;28;20513;-71
2021/11/18 07:23:27;;;;;;;0.50;0.50;;;6.80;99.90;;;;;;5094608;28;20485;-71
2021/11/18 07:25:59;;;;;;;0.40;0.22;;;6.90;99.90;;;;;;5093737;28;20485;-72
2021/11/18 07:28:26;;;;;;;0.40;0.20;;;7.00;99.90;;;;;;5094212;28;20400;-71
2021/11/18 07:30:54;;;;;;;0.70;0.70;;;7.10;99.90;;;;;;5093780;28;20481;-72
2021/11/18 07:33:22;;;;;;;0.40;0.20;;;7.00;99.90;;;;;;5094357;28;20389;-72
2021/11/18 07:35:50;;;;;;;0.40;0.22;;;7.10;99.90;;;;;;5094275;28;20718;-72
2021/11/18 07:38:17;;;;;;;0.50;0.50;;;7.10;99.90;;;;;;5093658;28;20374;-72
2021/11/18 07:40:44;;;;;;;0.40;0.20;;;7.00;99.90;;;;;;5093944;28;20886;-71
2021/11/18 07:43:12;;;;;;;0.40;0.30;;;7.00;99.90;;;;;;5093337;28;20378;-69
2021/11/18 07:45:38;;;;;;;0.40;0.40;;;7.00;99.90;;;;;;5094048;28;20454;-71
2021/11/18 07:48:04;;;;;;;0.40;0.33;;;7.00;99.90;;;;;;5093463;28;20374;-71
2021/11/18 07:50:30;;;;;;;0.40;0.20;;;7.20;99.90;;;;;;5093350;28;20475;-70
2021/11/18 07:52:57;;;;;;;0.40;0.20;;;7.30;99.90;;;;;;5092152;28;20378;-71
2021/11/18 07:55:24;;;;;;;0.50;0.50;;;7.20;99.90;;;;;;5092465;28;20382;-71
2021/11/18 07:57:50;;;;;;;0.40;0.20;;;7.10;99.90;;;;;;5092667;28;20867;-71
2021/11/18 08:00:18;;;;;;;0.40;0.20;;;7.30;99.90;;;;;;5091926;28;20413;-71
2021/11/18 08:02:44;;;;;;;0.40;0.20;;;7.20;99.90;;;;;;5092625;28;20432;-72
2021/11/18 08:05:11;;;;;;;0.40;0.20;;;7.20;99.90;;;;;;5091623;28;20510;-72
2021/11/18 08:07:37;;;;;;;0.40;0.20;;;7.20;99.90;;;;;;5092446;28;20486;-71
2021/11/18 08:10:05;;;;;;;0.70;0.50;;;7.20;99.90;;;;;;5091134;28;20833;-71
2021/11/18 08:12:34;;;;;;;0.40;0.30;;;7.20;99.90;;;;;;5092742;28;20384;-71
2021/11/18 08:15:00;;;;;;;0.40;0.20;;;7.20;99.90;;;;;;5091817;28;20377;-71
2021/11/18 08:17:25;;;;;;;0.40;0.30;;;7.30;99.90;;;;;;5092353;28;20384;-71
2021/11/18 08:19:51;;;;;;;0.40;0.20;;;7.30;99.90;;;;;;5092390;28;21130;-71
2021/11/18 08:22:17;;;;;;;0.40;0.20;;;7.30;99.90;;;;;;5091645;28;20386;-71
2021/11/18 08:24:43;;;;;;;1.80;1.00;;;7.30;99.90;;;;;;5092070;28;20766;-71
2021/11/18 08:27:09;;;;;;;0.40;0.30;;;7.40;99.90;;;;;;5091666;28;20390;-71
2021/11/18 08:29:35;;;;;;;0.40;0.30;;;7.50;99.90;;;;;;5092261;28;20410;-71
2021/11/18 08:32:02;;;;;;;0.60;0.50;;;7.50;99.90;;;;;;5091844;28;20419;-71
2021/11/18 08:34:28;;;;;;;0.40;0.20;;;7.50;99.90;;;;;;5091844;28;20449;-71
2021/11/18 08:36:55;;;;;;;0.50;0.40;;;7.50;99.90;;;;;;5092258;28;20377;-71
2021/11/18 08:39:23;;;;;;;0.40;0.20;;;7.40;99.90;;;;;;5092044;28;20378;-71
2021/11/18 08:41:53;;;;;;;0.40;0.20;;;7.40;99.90;;;;;;5091424;28;20405;-71
2021/11/18 08:44:19;;;;;;;0.40;0.20;;;7.60;99.90;;;;;;5091409;28;20378;-70
2021/11/18 08:46:47;;;;;;;1.20;1.10;;;7.60;99.90;;;;;;5092177;28;20700;-71
2021/11/18 08:49:12;;;;;;;0.40;0.30;;;7.70;99.90;;;;;;5089842;28;20447;-70
2021/11/18 08:51:39;;;;;;;0.40;0.40;;;7.60;99.90;;;;;;5025987;28;1855119;-70
2021/11/18 08:54:09;;;;;;;0.40;0.20;;;7.80;99.90;;;;;;5092072;28;20477;-70
2021/11/18 08:56:35;;;;;;;0.50;0.50;;;7.80;99.90;;;;;;5092757;28;20382;-70
2021/11/18 08:59:03;;;;;;;0.40;0.40;;;7.70;99.90;;;;;;5091844;28;20382;-71
2021/11/18 09:01:54;;;;;;;0.40;0.20;;;7.70;99.90;;;;;;5092569;28;20400;-71
2021/11/18 09:04:22;;;;;;;0.50;0.40;;;7.80;99.90;;;;;;5092041;28;20385;-71
2021/11/18 09:06:48;;;;;;;0.40;0.20;;;7.80;99.90;;;;;;5092262;28;20382;-71
2021/11/18 09:09:16;;;;;;;0.40;0.30;;;7.70;99.90;;;;;;5091690;28;20381;-70
2021/11/18 09:11:44;;;;;;;0.40;0.20;;;7.80;99.90;;;;;;5092493;28;20394;-70
2021/11/18 09:14:10;;;;;;;0.40;0.27;;;7.80;99.90;;;;;;5091505;28;20918;-71
2021/11/18 09:16:38;;;;;;;0.40;0.20;;;7.90;99.90;;;;;;5092387;28;20384;-70
2021/11/18 09:19:08;;;;;;;0.40;0.20;;;7.90;99.90;;;;;;5091627;28;20378;-70
2021/11/18 09:21:35;;;;;;;2.30;0.80;;;7.90;99.90;;;;;;5091519;28;20409;-70
2021/11/18 09:24:06;;;;;;;0.40;0.20;;;7.70;99.90;;;;;;5091616;28;20382;-70
2021/11/18 09:26:35;;;;;;;0.40;0.20;;;7.50;99.90;;;;;;5091888;28;20382;-71
2021/11/18 09:29:01;;;;;;;0.40;0.20;;;7.50;99.90;;;;;;5091513;28;20389;-71
2021/11/18 09:31:28;;;;;;;0.40;0.40;;;7.80;99.90;;;;;;5092228;28;20464;-70
2021/11/18 09:33:55;;;;;;;0.90;0.70;;;7.80;99.90;;;;;;5091896;28;20731;-70
2021/11/18 09:36:23;;;;;;;0.40;0.20;;;7.80;99.90;;;;;;5091126;28;20481;-70
2021/11/18 09:38:50;;;;;;;0.40;0.20;;;7.90;99.90;;;;;;5091520;28;20374;-70
2021/11/18 09:41:26;;;;;;;0.80;0.80;;;8.20;99.90;;;;;;5090757;28;20938;-71
2021/11/18 09:44:33;;;;;;;0.40;0.30;;;8.30;99.90;;;;;;5091812;28;20382;-70
2021/11/18 09:47:32;;;;;;;0.50;0.50;;;8.30;99.90;;;;;;5091928;28;20415;-70
2021/11/18 09:50:29;;;;;;;0.40;0.30;;;8.30;99.90;;;;;;5091822;28;20382;-70
2021/11/18 09:53:14;;;;;;;0.68;0.68;;;8.30;99.90;;;;;;5092037;28;20742;-70
2021/11/18 09:55:46;;;;;;;0.40;0.20;;;8.40;99.90;;;;;;5091544;28;20726;-70
2021/11/18 09:58:36;;;;;;;0.40;0.20;;;8.40;99.90;;;;;;5090825;28;20386;-70
2021/11/18 10:01:30;;;;;;;0.50;0.40;;;8.60;99.90;;;;;;5090950;28;20429;-70
2021/11/18 10:04:36;;;;;;;0.60;0.60;;;8.50;99.90;;;;;;5091314;28;20869;-70
2021/11/18 10:07:24;;;;;;;0.40;0.40;;;8.60;99.90;;;;;;5090876;28;20435;-71
2021/11/18 10:10:08;;;;;;;0.40;0.20;;;8.30;99.90;;;;;;5091517;28;20381;-71
2021/11/18 10:13:08;;;;;;;0.40;0.40;;;8.60;99.90;;;;;;5091396;28;20798;-71
2021/11/18 10:15:43;;;;;;;0.40;0.40;;;8.80;99.90;;;;;;5091049;28;20776;-70
2021/11/18 10:18:16;;;;;;;0.40;0.30;;;8.80;99.90;;;;;;5090278;28;20382;-71
2021/11/18 10:20:44;;;;;;;0.40;0.30;;;8.80;99.90;;;;;;5091314;28;20750;-71
2021/11/18 10:23:14;;;;;;;0.40;0.25;;;8.80;99.90;;;;;;5090623;28;20382;-70
2021/11/18 10:25:54;;;;;;;5.50;1.10;;;8.70;99.90;;;;;;5091119;28;20385;-71
2021/11/18 10:28:20;;;;;;;0.50;0.50;;;8.80;99.90;;;;;;5090522;28;20394;-70
2021/11/18 10:30:54;;;;;;;0.40;0.20;;;8.90;99.90;;;;;;5090878;28;20389;-71
2021/11/18 10:33:38;;;;;;;0.40;0.30;;;8.80;99.90;;;;;;5090321;28;20385;-71
2021/11/18 10:36:38;;;;;;;0.40;0.20;;;8.80;99.90;;;;;;5090583;28;20374;-70
2021/11/18 10:39:18;;;;;;;3.40;0.80;;;9.00;99.90;;;;;;5090082;28;20424;-71
2021/11/18 10:41:55;;;;;;;0.40;0.20;;;9.10;99.90;;;;;;5090639;28;20400;-71
2021/11/18 10:44:30;;;;;;;0.40;0.20;;;9.20;99.90;;;;;;5090137;28;20947;-71
2021/11/18 10:47:07;;;;;;;0.40;0.30;;;9.20;99.90;;;;;;5090779;28;20560;-71
2021/11/18 10:50:04;;;;;;;0.40;0.30;;;8.90;99.90;;;;;;5091023;28;20386;-71
2021/11/18 10:52:37;;;;;;;0.40;0.20;;;9.30;99.90;;;;;;5090984;28;20402;-70
2021/11/18 10:55:27;;;;;;;0.40;0.20;;;9.50;99.90;;;;;;5090995;28;20393;-70
2021/11/18 10:58:04;;;;;;;0.40;0.40;;;9.60;99.90;;;;;;5091139;28;20394;-70
2021/11/18 11:00:41;;;;;;;0.50;0.40;;;9.70;99.90;;;;;;5090862;28;20727;-70
2021/11/18 11:03:34;;;;;;;0.80;0.80;;;10.20;99.90;;;;;;5089994;28;20476;-71
2021/11/18 11:06:24;;;;;;;0.40;0.30;;;10.30;99.90;;;;;;5090749;28;20366;-70
2021/11/18 11:09:21;;;;;;;1.10;0.80;;;10.20;99.90;;;;;;5090669;28;20382;-70
2021/11/18 11:12:31;;;;;;;0.50;0.50;;;10.10;99.90;;;;;;5083970;28;20394;-71
2021/11/18 11:15:13;;;;;;;0.40;0.30;;;11.10;99.90;;;;;;5017936;28;20428;-71
2021/11/18 11:18:02;;;;;;;0.50;0.40;;;11.10;99.90;;;;;;5090562;28;20382;-71
2021/11/18 11:20:50;;;;;;;0.40;0.30;;;11.30;99.90;;;;;;5089880;28;20398;-71
2021/11/18 11:23:42;;;;;;;0.40;0.20;;;11.80;99.90;;;;;;5089668;28;20480;-71
2021/11/18 11:26:46;;;;;;;0.40;0.20;;;11.40;99.90;;;;;;5090073;28;20386;-72
2021/11/18 11:29:21;;;;;;;0.40;0.30;;;11.70;99.90;;;;;;5089854;28;20742;-70
2021/11/18 11:32:02;;;;;;;0.40;0.30;;;11.10;99.90;;;;;;5090321;28;20382;-70
2021/11/18 11:34:37;;;;;;;0.90;0.60;;;11.90;99.90;;;;;;5089539;28;20423;-70
2021/11/18 11:37:03;;;;;;;1.70;0.70;;;11.40;99.90;;;;;;5090552;28;20905;-70
2021/11/18 11:39:47;;;;;;;0.40;0.30;;;11.90;99.90;;;;;;5088534;28;20465;-70
2021/11/18 11:42:32;;;;;;;0.40;0.30;;;12.20;99.50;;;;;;5089497;28;20812;-70
2021/11/18 11:45:19;;;;;;;0.40;0.30;;;11.30;99.90;;;;;;5093090;28;20394;-70
2021/11/18 11:48:04;;;;;;;0.40;0.30;;;11.10;99.90;;;;;;5094028;28;20474;-70
2021/11/18 11:50:51;;;;;;;0.40;0.20;;;11.00;99.90;;;;;;5093138;28;20823;-70
2021/11/18 11:53:34;;;;;;;0.40;0.30;;;10.70;99.90;;;;;;5093141;28;20378;-70
2021/11/18 11:56:31;;;;;;;0.40;0.30;;;11.70;99.90;;;;;;5094185;28;20398;-70
2021/11/18 11:59:03;;;;;;;0.40;0.30;;;11.50;99.90;;;;;;5087159;28;20437;-70
2021/11/18 12:01:43;;;;;;;0.40;0.20;;;12.20;98.80;;;;;;5093140;28;20441;-70
2021/11/18 12:04:21;;;;;;;0.40;0.30;;;12.70;98.60;;;;;;5093154;28;20738;-71
2021/11/18 12:07:12;;;;;;;0.60;0.60;;;12.40;97.70;;;;;;5093918;28;20436;-70
2021/11/18 12:10:10;;;;;;;0.98;0.80;;;11.40;99.90;;;;;;5093384;28;20386;-70
2021/11/18 12:12:51;;;;;;;0.40;0.30;;;12.00;99.90;;;;;;5093853;28;20378;-70
2021/11/18 12:15:20;;;;;;;0.40;0.30;;;12.60;99.30;;;;;;5092914;28;20385;-70
2021/11/18 12:17:53;;;;;;;0.40;0.40;;;11.80;98.10;;;;;;5093497;28;20382;-70
2021/11/18 12:20:26;;;;;;;0.40;0.30;;;11.30;99.90;;;;;;5092651;28;20870;-70
2021/11/18 12:23:13;;;;;;;0.40;0.20;;;11.40;99.90;;;;;;5093400;28;20390;-70
2021/11/18 12:25:42;;;;;;;0.40;0.20;;;11.20;99.90;;;;;;5093078;28;20397;-70
2021/11/18 12:28:16;;;;;;;0.40;0.22;;;11.00;99.90;;;;;;5093182;28;20386;-70
2021/11/18 12:30:47;;;;;;;0.40;0.25;;;10.70;99.90;;;;;;5093354;28;20398;-70
2021/11/18 12:33:19;;;;;;;0.40;0.20;;;10.90;99.90;;;;;;5092245;28;20839;-70
2021/11/18 12:36:03;;;;;;;0.40;0.30;;;11.10;99.90;;;;;;5093498;28;20390;-70
2021/11/18 12:38:44;;;;;;;0.40;0.20;;;10.90;99.90;;;;;;5091948;28;20374;-72
2021/11/18 12:41:29;;;;;;;0.40;0.30;;;10.60;99.90;;;;;;5091093;28;20398;-71
2021/11/18 12:44:20;;;;;;;0.40;0.30;;;10.50;99.90;;;;;;5092472;28;20386;-70
2021/11/18 12:46:58;;;;;;;0.40;0.20;;;10.40;99.90;;;;;;5093011;28;20730;-72
2021/11/18 12:49:55;;;;;;;0.40;0.30;;;10.50;99.90;;;;;;5082025;28;20496;-70
2021/11/18 12:52:32;;;;;;;0.40;0.20;;;10.70;99.90;;;;;;5090071;28;20410;-71
2021/11/18 12:55:41;;;;;;;0.40;0.30;;;10.60;99.90;;;;;;5090817;28;20394;-69
2021/11/18 12:58:25;;;;;;;0.40;0.30;;;10.70;99.90;;;;;;5092848;28;20496;-70
2021/11/18 13:00:53;;;;;;;0.95;0.40;;;10.40;99.90;;;;;;5092331;28;20710;-71
2021/11/18 13:03:45;;;;;;;0.40;0.30;;;10.40;99.90;;;;;;5092060;28;20382;-70
2021/11/18 13:06:33;;;;;;;0.40;0.40;;;10.50;99.90;;;;;;5092612;28;20378;-69
2021/11/18 13:09:00;;;;;;;0.40;0.30;;;10.30;99.90;;;;;;5092162;28;20731;-69
2021/11/18 13:11:26;;;;;;;1.00;0.70;;;10.50;99.90;;;;;;5091639;28;20389;-70
2021/11/18 13:14:21;;;;;;;0.40;0.20;;;10.60;99.90;;;;;;5092185;28;20381;-69
2021/11/18 13:16:47;;;;;;;0.40;0.30;;;10.50;99.90;;;;;;5090898;28;20393;-69